Time;durP1;ratioP1;P1;durP2;ratioP2;P2;SDS_P1;SDS_P2;PMS_P1;PMS_P2;Temp;Humidity;BMP_temperature;BMP_pressure;BME280_temperature;BME280_humidity;BME280_pressure;Samples;Min_cycle;Max_cycle;Signal;HPM_P1;HPM_P2
2023/12/01 00:02:02;;;;;;;;;;;256.00;2252.80;;;;;;4988272;28;19985;-74
2023/12/01 00:04:27;;;;;;;;;;;256.00;2252.80;;;;;;4989565;28;20475;-74
2023/12/01 00:06:53;;;;;;;;;;;231.30;2252.80;;;;;;4985001;28;19914;-74
2023/12/01 00:09:19;;;;;;;;;;;231.30;2252.80;;;;;;4989306;28;19913;-74
2023/12/01 00:11:44;;;;;;;;;;;256.00;2252.80;;;;;;4975952;28;20379;-74
2023/12/01 00:14:10;;;;;;;;;;;256.10;2252.80;;;;;;4980567;28;19982;-73
2023/12/01 00:16:36;;;;;;;;;;;256.10;2252.80;;;;;;4984736;28;19909;-74
2023/12/01 00:19:02;;;;;;;;;;;256.10;2252.80;;;;;;4990460;28;20390;-74
2023/12/01 00:21:27;;;;;;;;;;;256.10;2252.80;;;;;;4976342;28;20323;-74
2023/12/01 00:23:54;;;;;;;;;;;256.30;2252.80;;;;;;4993348;28;19918;-74
2023/12/01 00:26:19;;;;;;;;;;;256.20;2252.80;;;;;;4975119;28;20344;-75
2023/12/01 00:28:45;;;;;;;;;;;256.30;2252.80;;;;;;4987044;28;19906;-75
2023/12/01 00:31:11;;;;;;;;;;;256.40;2252.80;;;;;;4988548;28;19917;-74
2023/12/01 00:33:36;;;;;;;;;;;256.50;2252.80;;;;;;4979846;28;20324;-74
2023/12/01 00:36:02;;;;;;;;;;;256.50;2252.80;;;;;;4988754;28;20000;-74
2023/12/01 00:38:28;;;;;;;;;;;256.50;2252.80;;;;;;4983944;28;19917;-75
2023/12/01 00:40:53;;;;;;;;;;;256.60;2252.80;;;;;;4989391;28;20359;-74
2023/12/01 00:43:19;;;;;;;;;;;256.60;2252.80;;;;;;4983107;28;19916;-74
2023/12/01 00:45:44;;;;;;;;;;;256.70;2252.80;;;;;;4984572;28;19914;-74
2023/12/01 00:48:10;;;;;;;;;;;256.70;2252.80;;;;;;4971653;28;19968;-74
2023/12/01 00:50:35;;;;;;;;;;;256.70;2252.80;;;;;;4989189;28;19910;-75
2023/12/01 00:53:01;;;;;;;;;;;256.70;2252.80;;;;;;4989310;28;19972;-74
2023/12/01 00:55:27;;;;;;;;;;;256.60;2252.80;;;;;;4975898;28;19910;-75
2023/12/01 00:57:53;;;;;;;;;;;256.70;2252.80;;;;;;4984130;28;20000;-74
2023/12/01 01:00:20;;;;;;;;;;;256.60;2252.80;;;;;;4984091;28;20365;-74
2023/12/01 01:02:46;;;;;;;;;;;256.60;2252.80;;;;;;4980088;28;20004;-74
2023/12/01 01:05:11;;;;;;;;;;;256.70;2252.80;;;;;;4985824;28;20330;-74
2023/12/01 01:07:37;;;;;;;;;;;256.70;2252.80;;;;;;4981258;28;19922;-74
2023/12/01 01:10:02;;;;;;;;;;;256.70;2252.80;;;;;;4985691;28;19945;-74
2023/12/01 01:12:28;;;;;;;;;;;256.70;2252.80;;;;;;4986365;28;19941;-74
2023/12/01 01:14:54;;;;;;;;;;;256.70;2252.80;;;;;;4974511;28;20279;-74
2023/12/01 01:17:19;;;;;;;;;;;256.70;2252.80;;;;;;4976529;28;19961;-74
2023/12/01 01:19:45;;;;;;;;;;;256.70;2252.80;;;;;;4989312;28;19969;-74
2023/12/01 01:22:11;;;;;;;;;;;256.70;2252.80;;;;;;4993868;28;19925;-74
2023/12/01 01:24:36;;;;;;;;;;;256.80;2252.80;;;;;;4993869;28;19948;-74
2023/12/01 01:27:02;;;;;;;;;;;256.80;2252.80;;;;;;4994000;28;19913;-74
2023/12/01 01:29:28;;;;;;;;;;;256.80;2252.80;;;;;;4994158;28;20055;-74
2023/12/01 01:31:53;;;;;;;;;;;256.80;2252.80;;;;;;4975794;28;19912;-74
2023/12/01 01:34:19;;;;;;;;;;;256.70;2252.80;;;;;;4976177;28;19960;-74
2023/12/01 01:36:44;;;;;;;;;;;256.80;2252.80;;;;;;4976342;28;19906;-74
2023/12/01 01:39:10;;;;;;;;;;;256.70;2252.80;;;;;;4993567;28;19906;-74
2023/12/01 01:41:36;;;;;;;;;;;256.70;2252.80;;;;;;4993591;28;19906;-74
2023/12/01 01:44:02;;;;;;;;;;;256.70;2252.80;;;;;;4993815;28;19906;-74
2023/12/01 01:46:27;;;;;;;;;;;256.70;2252.80;;;;;;4993650;28;19995;-74
2023/12/01 01:48:54;;;;;;;;;;;256.70;2252.80;;;;;;4993257;28;19906;-74
2023/12/01 01:51:19;;;;;;;;;;;256.70;2252.80;;;;;;4993533;28;19913;-74
2023/12/01 01:53:45;;;;;;;;;;;256.70;2252.80;;;;;;4993343;28;19917;-74
2023/12/01 01:56:14;;;;;;;;;;;256.60;2252.80;;;;;;4993639;28;19910;-74
2023/12/01 01:58:41;;;;;;;;;;;256.60;2252.80;;;;;;4993500;28;19910;-74
2023/12/01 02:01:07;;;;;;;;;;;256.70;2252.80;;;;;;4993470;28;19949;-74
2023/12/01 02:03:33;;;;;;;;;;;256.70;2252.80;;;;;;4975979;28;19960;-74
2023/12/01 02:05:59;;;;;;;;;;;256.70;2252.80;;;;;;4993412;28;19910;-74
2023/12/01 02:08:25;;;;;;;;;;;256.70;2252.80;;;;;;4975835;28;19997;-74
2023/12/01 02:10:52;;;;;;;;;;;256.80;2252.80;;;;;;4993396;28;19910;-74
2023/12/01 02:13:18;;;;;;;;;;;256.80;2252.80;;;;;;4993219;28;19906;-74
2023/12/01 02:15:43;;;;;;;;;;;256.80;2252.80;;;;;;4993437;28;19906;-74
2023/12/01 02:18:26;;;;;;;;;;;256.80;2252.80;;;;;;4993486;28;19913;-74
2023/12/01 02:20:52;;;;;;;;;;;256.90;2252.80;;;;;;4996686;28;19913;-75
2023/12/01 02:23:18;;;;;;;;;;;256.90;2252.80;;;;;;4996893;28;19921;-75
2023/12/01 02:25:44;;;;;;;;;;;256.90;2252.80;;;;;;4996370;28;19910;-74
2023/12/01 02:28:09;;;;;;;;;;;256.90;2252.80;;;;;;4996744;28;20021;-74
2023/12/01 02:30:35;;;;;;;;;;;281.60;2278.40;;;;;;4996649;28;19906;-74
2023/12/01 02:33:00;;;;;;;;;;;281.60;2278.40;;;;;;4996790;28;19909;-75
2023/12/01 02:35:35;;;;;;;;;;;281.60;2278.40;;;;;;4979063;28;19913;-74
2023/12/01 02:38:01;;;;;;;;;;;281.70;2278.40;;;;;;4984716;28;19909;-74
2023/12/01 02:40:27;;;;;;;;;;;281.70;2278.40;;;;;;4996289;28;19912;-74
2023/12/01 02:42:53;;;;;;;;;;;281.70;2278.40;;;;;;4979150;28;19933;-75
2023/12/01 02:45:19;;;;;;;;;;;281.70;2278.40;;;;;;4996498;28;19906;-74
2023/12/01 02:47:47;;;;;;;;;;;281.80;2278.40;;;;;;4978930;28;19920;-74
2023/12/01 02:50:16;;;;;;;;;;;281.80;2278.40;;;;;;4996256;28;19997;-74
2023/12/01 02:52:42;;;;;;;;;;;281.80;2278.40;;;;;;4996366;28;19914;-74
2023/12/01 02:55:08;;;;;;;;;;;281.80;2278.40;;;;;;4996133;28;20430;-74
2023/12/01 02:57:39;;;;;;;;;;;281.80;2278.40;;;;;;4996445;28;20367;-74
2023/12/01 03:00:06;;;;;;;;;;;281.90;2278.40;;;;;;4996040;28;19906;-74
2023/12/01 03:02:34;;;;;;;;;;;282.00;2278.40;;;;;;4978751;28;19964;-74
2023/12/01 03:05:00;;;;;;;;;;;281.90;2278.40;;;;;;4996019;28;20319;-74
2023/12/01 03:07:26;;;;;;;;;;;282.00;2278.40;;;;;;4996092;28;19913;-74
2023/12/01 03:09:51;;;;;;;;;;;282.30;2278.40;;;;;;4995861;28;19910;-74
2023/12/01 03:12:17;;;;;;;;;;;282.00;2278.40;;;;;;4996089;28;20037;-74
2023/12/01 03:14:43;;;;;;;;;;;282.00;2278.40;;;;;;4995777;28;19906;-74
2023/12/01 03:17:08;;;;;;;;;;;281.90;2278.40;;;;;;4995882;28;20291;-74
2023/12/01 03:19:34;;;;;;;;;;;282.00;2278.40;;;;;;4995392;28;19910;-75
2023/12/01 03:21:59;;;;;;;;;;;282.00;2278.40;;;;;;4995629;28;19925;-74
2023/12/01 03:24:25;;;;;;;;;;;282.00;2278.40;;;;;;4995619;28;19910;-74
2023/12/01 03:26:51;;;;;;;;;;;282.00;2278.40;;;;;;4995569;28;19984;-74
2023/12/01 03:29:16;;;;;;;;;;;282.00;2278.40;;;;;;4995469;28;19988;-74
2023/12/01 03:31:42;;;;;;;;;;;282.00;2278.40;;;;;;4995552;28;20268;-74
2023/12/01 03:34:07;;;;;;;;;;;282.00;2278.40;;;;;;4995624;28;19914;-74
2023/12/01 03:36:33;;;;;;;;;;;282.00;2278.40;;;;;;4995232;28;19906;-74
2023/12/01 03:38:59;;;;;;;;;;;282.00;2278.40;;;;;;4995175;28;19913;-74
2023/12/01 03:41:24;;;;;;;;;;;281.90;2278.40;;;;;;4995483;28;19945;-74
2023/12/01 03:43:50;;;;;;;;;;;281.90;2278.40;;;;;;4995455;28;19968;-74
2023/12/01 03:46:16;;;;;;;;;;;281.90;2278.40;;;;;;4995392;28;19913;-74
2023/12/01 03:48:41;;;;;;;;;;;281.90;2278.40;;;;;;4995208;28;19920;-74
2023/12/01 03:51:11;;;;;;;;;;;282.00;2278.40;;;;;;4995073;28;20004;-74
2023/12/01 03:53:37;;;;;;;;;;;281.90;2278.40;;;;;;4995118;28;19910;-74
2023/12/01 03:56:03;;;;;;;;;;;281.90;2278.40;;;;;;4995037;28;19920;-74
2023/12/01 03:58:29;;;;;;;;;;;282.00;2278.40;;;;;;4995092;28;19906;-74
2023/12/01 04:00:54;;;;;;;;;;;282.00;2278.40;;;;;;4995007;28;19970;-74
2023/12/01 04:03:20;;;;;;;;;;;282.00;2278.40;;;;;;4994914;28;19912;-74
2023/12/01 04:05:46;;;;;;;;;;;282.00;2278.40;;;;;;4994824;28;19917;-74
2023/12/01 04:08:12;;;;;;;;;;;282.00;2278.40;;;;;;4994827;28;20048;-74
2023/12/01 04:10:37;;;;;;;;;;;282.00;2278.40;;;;;;4994933;28;20371;-74
2023/12/01 04:13:07;;;;;;;;;;;282.00;2278.40;;;;;;4994710;28;19906;-74
2023/12/01 04:15:39;;;;;;;;;;;282.00;2278.40;;;;;;4977437;28;19952;-74
2023/12/01 04:18:08;;;;;;;;;;;282.00;2278.40;;;;;;4994686;28;20382;-74
2023/12/01 04:20:38;;;;;;;;;;;282.00;2278.40;;;;;;4994563;28;19909;-74
2023/12/01 04:23:09;;;;;;;;;;;282.00;2278.40;;;;;;4976931;28;19929;-74
2023/12/01 04:25:35;;;;;;;;;;;282.00;2278.40;;;;;;4977114;28;20253;-74
2023/12/01 04:28:01;;;;;;;;;;;282.10;2278.40;;;;;;4994341;28;19914;-74
2023/12/01 04:30:26;;;;;;;;;;;282.10;2278.40;;;;;;4994476;28;19913;-73
2023/12/01 04:32:52;;;;;;;;;;;282.10;2278.40;;;;;;4994312;28;19905;-74
2023/12/01 04:35:19;;;;;;;;;;;282.10;2278.40;;;;;;4994319;28;20000;-74
2023/12/01 04:37:45;;;;;;;;;;;282.10;2278.40;;;;;;4994167;28;19905;-74
2023/12/01 04:40:17;;;;;;;;;;;282.20;2278.40;;;;;;4994301;28;20383;-74
2023/12/01 04:42:44;;;;;;;;;;;282.20;2278.40;;;;;;4993674;28;19913;-74
2023/12/01 04:45:11;;;;;;;;;;;282.20;2278.40;;;;;;4994396;28;20411;-74
2023/12/01 04:47:38;;;;;;;;;;;282.20;2278.40;;;;;;4981317;28;20356;-74
2023/12/01 04:50:12;;;;;;;;;;;282.20;2278.40;;;;;;4976445;28;19909;-74
2023/12/01 04:52:41;;;;;;;;;;;282.10;2278.40;;;;;;4994089;28;19913;-74
2023/12/01 04:55:08;;;;;;;;;;;282.20;2278.40;;;;;;4994150;28;19906;-74
2023/12/01 04:57:34;;;;;;;;;;;282.20;2278.40;;;;;;4994224;28;20353;-74
2023/12/01 04:59:59;;;;;;;;;;;282.30;2278.40;;;;;;4976560;28;19921;-74
2023/12/01 05:02:25;;;;;;;;;;;282.30;2278.40;;;;;;4994377;28;19906;-74
2023/12/01 05:04:51;;;;;;;;;;;282.40;2278.40;;;;;;4993817;28;19944;-74
2023/12/01 05:07:16;;;;;;;;;;;282.40;2278.40;;;;;;4993762;28;20299;-75
2023/12/01 05:09:42;;;;;;;;;;;282.50;2278.40;;;;;;4993885;28;19906;-74
2023/12/01 05:12:07;;;;;;;;;;;282.50;2278.40;;;;;;4994122;28;19906;-74
2023/12/01 05:14:33;;;;;;;;;;;282.50;2278.40;;;;;;4993842;28;19992;-74
2023/12/01 05:16:58;;;;;;;;;;;282.50;2278.40;;;;;;4993999;28;19912;-74
2023/12/01 05:19:24;;;;;;;;;;;282.50;2278.40;;;;;;4993788;28;20030;-74
2023/12/01 05:21:50;;;;;;;;;;;282.50;2278.40;;;;;;4993522;28;19917;-74
2023/12/01 05:24:16;;;;;;;;;;;282.50;2278.40;;;;;;4993515;28;19917;-74
2023/12/01 05:26:41;;;;;;;;;;;282.50;2278.40;;;;;;4993709;28;20434;-74
2023/12/01 05:29:13;;;;;;;;;;;282.50;2278.40;;;;;;4993733;28;19906;-74
2023/12/01 05:31:41;;;;;;;;;;;282.50;2278.40;;;;;;4976322;28;19906;-74
2023/12/01 05:34:07;;;;;;;;;;;307.20;2304.00;;;;;;4993733;28;19913;-74
2023/12/01 05:36:32;;;;;;;;;;;307.20;2304.00;;;;;;4993650;28;19906;-74
2023/12/01 05:38:58;;;;;;;;;;;307.20;2304.00;;;;;;4993559;28;20412;-73
2023/12/01 05:41:23;;;;;;;;;;;307.20;2304.00;;;;;;4976607;28;19906;-74
2023/12/01 05:43:49;;;;;;;;;;;307.30;2304.00;;;;;;4993538;28;19910;-74
2023/12/01 05:46:15;;;;;;;;;;;307.30;2304.00;;;;;;4993750;28;19980;-74
2023/12/01 05:48:41;;;;;;;;;;;307.40;2304.00;;;;;;4993506;28;20009;-74
2023/12/01 05:51:07;;;;;;;;;;;307.40;2304.00;;;;;;4976069;28;20384;-74
2023/12/01 05:53:34;;;;;;;;;;;307.40;2304.00;;;;;;4993843;28;20012;-74
2023/12/01 05:56:02;;;;;;;;;;;307.40;2304.00;;;;;;4997476;28;20271;-74
2023/12/01 05:58:28;;;;;;;;;;;307.40;2304.00;;;;;;4997318;28;20248;-74
2023/12/01 06:00:53;;;;;;;;;;;307.40;2304.00;;;;;;4997073;28;19952;-74
2023/12/01 06:03:19;;;;;;;;;;;307.40;2304.00;;;;;;4979773;28;19905;-74
2023/12/01 06:05:46;;;;;;;;;;;307.40;2304.00;;;;;;4996416;28;20368;-74
2023/12/01 06:08:12;;;;;;;;;;;307.40;2304.00;;;;;;4996651;28;19925;-74
2023/12/01 06:10:38;;;;;;;;;;;307.40;2304.00;;;;;;4997287;28;19975;-75
2023/12/01 06:13:04;;;;;;;;;;;307.20;2304.00;;;;;;4994363;28;19915;-74
2023/12/01 06:15:29;;;;;;;;;;;307.30;2304.00;;;;;;4989307;28;20275;-74
2023/12/01 06:17:57;;;;;;;;;;;307.30;2304.00;;;;;;4975601;28;19910;-74
2023/12/01 06:20:23;;;;;;;;;;;307.30;2304.00;;;;;;4993242;28;20382;-74
2023/12/01 06:22:48;;;;;;;;;;;307.30;2304.00;;;;;;4996462;28;19921;-74
2023/12/01 06:25:14;;;;;;;;;;;307.40;2304.00;;;;;;4988647;28;19916;-74
2023/12/01 06:27:41;;;;;;;;;;;307.80;2304.00;;;;;;4988158;28;20294;-74
2023/12/01 06:30:13;;;;;;;;;;;307.40;2304.00;;;;;;4996657;28;20395;-74
2023/12/01 06:32:39;;;;;;;;;;;307.40;2304.00;;;;;;4990988;28;19997;-73
2023/12/01 06:35:07;;;;;;;;;;;307.40;2304.00;;;;;;4991051;28;20376;-73
2023/12/01 06:37:32;;;;;;;;;;;307.40;2304.00;;;;;;4988530;28;19964;-75
2023/12/01 06:39:58;;;;;;;;;;;307.40;2304.00;;;;;;4991554;28;19914;-74
2023/12/01 06:42:23;;;;;;;;;;;307.40;2304.00;;;;;;4990481;28;20431;-73
2023/12/01 06:44:49;;;;;;;;;;;307.50;2304.00;;;;;;4993191;28;20009;-74
2023/12/01 06:47:15;;;;;;;;;;;307.40;2304.00;;;;;;4993127;28;19918;-74
2023/12/01 06:49:40;;;;;;;;;;;307.40;2304.00;;;;;;4990778;28;19906;-74
2023/12/01 06:52:08;;;;;;;;;;;307.50;2304.00;;;;;;4990017;28;19914;-74
2023/12/01 06:54:33;;;;;;;;;;;307.50;2304.00;;;;;;4986652;28;19949;-75
2023/12/01 06:56:59;;;;;;;;;;;307.50;2304.00;;;;;;4985526;28;19964;-75
2023/12/01 06:59:24;;;;;;;;;;;307.60;2304.00;;;;;;4985196;28;19909;-76
2023/12/01 07:01:50;;;;;;;;;;;307.60;2304.00;;;;;;4986789;28;19910;-75
2023/12/01 07:04:16;;;;;;;;;;;307.60;2304.00;;;;;;4987542;28;20339;-76
2023/12/01 07:06:46;;;;;;;;;;;307.70;2304.00;;;;;;4993753;28;19945;-76
2023/12/01 07:09:17;;;;;;;;;;;307.70;2304.00;;;;;;4985376;28;19936;-76
2023/12/01 07:11:46;;;;;;;;;;;307.70;2304.00;;;;;;4994330;28;19906;-76
2023/12/01 07:14:12;;;;;;;;;;;307.70;2304.00;;;;;;4974651;28;19964;-76
2023/12/01 07:16:42;;;;;;;;;;;307.70;2304.00;;;;;;4992533;28;19910;-76
2023/12/01 07:19:07;;;;;;;;;;;307.80;2304.00;;;;;;4977285;28;19909;-76
2023/12/01 07:21:33;;;;;;;;;;;307.90;2304.00;;;;;;4977588;28;20376;-78
2023/12/01 07:24:02;;;;;;;;;;;307.90;2304.00;;;;;;4987678;28;19941;-76
2023/12/01 07:26:28;;;;;;;;;;;307.90;2304.00;;;;;;4968351;28;20012;-77
2023/12/01 07:28:53;;;;;;;;;;;307.90;2304.00;;;;;;4966952;28;19910;-76
2023/12/01 07:31:19;;;;;;;;;;;307.90;2304.00;;;;;;4989687;28;20344;-76
2023/12/01 07:33:45;;;;;;;;;;;307.90;2304.00;;;;;;4967757;28;19917;-76
2023/12/01 07:36:11;;;;;;;;;;;308.00;2304.00;;;;;;4989652;28;19920;-75
2023/12/01 07:38:36;;;;;;;;;;;308.00;2304.00;;;;;;4976853;28;19916;-75
2023/12/01 07:41:02;;;;;;;;;;;308.00;2304.00;;;;;;4994006;28;19905;-76
2023/12/01 07:43:28;;;;;;;;;;;308.10;2304.00;;;;;;4990833;28;19909;-77
2023/12/01 07:45:55;;;;;;;;;;;308.10;2304.00;;;;;;4993096;28;20004;-75
2023/12/01 07:48:21;;;;;;;;;;;332.90;2329.60;;;;;;4988546;28;19945;-74
2023/12/01 07:50:47;;;;;;;;;;;332.90;2329.60;;;;;;4973829;28;19913;-75
2023/12/01 07:53:12;;;;;;;;;;;332.90;2329.60;;;;;;4983970;28;19917;-74
2023/12/01 07:55:41;;;;;;;;;;;333.00;2329.60;;;;;;4987910;28;19967;-75
2023/12/01 07:58:07;;;;;;;;;;;333.00;2329.60;;;;;;4987390;28;19910;-75
2023/12/01 08:00:32;;;;;;;;;;;333.10;2329.60;;;;;;4977185;28;19932;-75
2023/12/01 08:02:58;;;;;;;;;;;333.10;2329.60;;;;;;4962329;28;19910;-75
2023/12/01 08:05:24;;;;;;;;;;;333.10;2329.60;;;;;;4986448;28;19916;-76
2023/12/01 08:07:53;;;;;;;;;;;333.10;2329.60;;;;;;4982048;28;19981;-76
2023/12/01 08:10:19;;;;;;;;;;;333.20;2329.60;;;;;;4964927;28;19914;-74
2023/12/01 08:12:45;;;;;;;;;;;333.20;2329.60;;;;;;4988025;28;19912;-75
2023/12/01 08:15:11;;;;;;;;;;;333.30;2329.60;;;;;;4965883;28;20004;-75
2023/12/01 08:17:37;;;;;;;;;;;333.40;2329.60;;;;;;4980924;28;20368;-75
2023/12/01 08:20:05;;;;;;;;;;;333.50;2329.60;;;;;;4990726;28;20364;-76
2023/12/01 08:22:31;;;;;;;;;;;333.50;2329.60;;;;;;4985686;28;19922;-75
2023/12/01 08:24:57;;;;;;;;;;;333.60;2329.60;;;;;;4984709;28;20327;-74
2023/12/01 08:27:22;;;;;;;;;;;333.60;2329.60;;;;;;4985770;28;19917;-74
2023/12/01 08:29:49;;;;;;;;;;;333.60;2329.60;;;;;;4989596;28;19945;-75
2023/12/01 08:32:15;;;;;;;;;;;333.60;2329.60;;;;;;4988286;28;20283;-75
2023/12/01 08:34:42;;;;;;;;;;;333.70;2329.60;;;;;;4988916;28;19926;-75
2023/12/01 08:37:07;;;;;;;;;;;333.70;2329.60;;;;;;4973202;28;19924;-76
2023/12/01 08:39:33;;;;;;;;;;;358.40;2329.60;;;;;;4985417;28;19910;-75
2023/12/01 08:41:59;;;;;;;;;;;358.40;2329.60;;;;;;4987492;28;19914;-77
2023/12/01 08:44:24;;;;;;;;;;;358.40;2329.60;;;;;;4974100;28;19917;-77
2023/12/01 08:46:50;;;;;;;;;;;358.50;2329.60;;;;;;4971446;28;19993;-75
2023/12/01 08:49:16;;;;;;;;;;;358.50;2329.60;;;;;;4990126;28;19905;-77
2023/12/01 08:51:41;;;;;;;;;;;358.50;2329.60;;;;;;4990502;28;19917;-75
2023/12/01 08:54:07;;;;;;;;;;;358.50;2329.60;;;;;;4991022;28;20012;-74
2023/12/01 08:56:33;;;;;;;;;;;358.50;2329.60;;;;;;4973052;28;19917;-74
2023/12/01 08:58:59;;;;;;;;;;;358.50;2329.60;;;;;;4992427;28;19918;-75
2023/12/01 09:01:24;;;;;;;;;;;358.50;2329.60;;;;;;4989661;28;19937;-73
2023/12/01 09:03:50;;;;;;;;;;;358.50;2329.60;;;;;;4981974;28;20360;-77
2023/12/01 09:06:15;;;;;;;;;;;358.50;2329.60;;;;;;4989735;28;20000;-81
2023/12/01 09:08:41;;;;;;;;;;;358.50;2329.60;;;;;;4992732;28;19914;-81
2023/12/01 09:11:07;;;;;;;;;;;358.60;2329.60;;;;;;4976563;28;19928;-76
2023/12/01 09:13:34;;;;;;;;;;;358.60;2329.60;;;;;;4992229;28;19916;-76
2023/12/01 09:16:00;;;;;;;;;;;358.70;2329.60;;;;;;4988273;28;19909;-78
2023/12/01 09:18:26;;;;;;;;;;;358.70;2329.60;;;;;;4991413;28;19969;-79
2023/12/01 09:20:52;;;;;;;;;;;358.70;2329.60;;;;;;4990024;28;20344;-74
2023/12/01 09:23:17;;;;;;;;;;;358.80;2329.60;;;;;;4987793;28;20023;-79
2023/12/01 09:25:43;;;;;;;;;;;358.80;2329.60;;;;;;4991037;28;20367;-76
2023/12/01 09:28:09;;;;;;;;;;;358.90;2329.60;;;;;;4984355;28;19918;-78
2023/12/01 09:30:34;;;;;;;;;;;358.90;2329.60;;;;;;4994632;28;19913;-77
2023/12/01 09:33:00;;;;;;;;;;;358.90;2329.60;;;;;;4994584;28;20344;-77
2023/12/01 09:35:26;;;;;;;;;;;358.90;2329.60;;;;;;4969467;28;19913;-78
2023/12/01 09:37:52;;;;;;;;;;;358.90;2329.60;;;;;;4992370;28;20335;-78
2023/12/01 09:40:18;;;;;;;;;;;359.00;2329.60;;;;;;4992100;28;19910;-75
2023/12/01 09:42:43;;;;;;;;;;;358.90;2329.60;;;;;;4988030;28;19910;-75
2023/12/01 09:45:11;;;;;;;;;;;384.00;2329.60;;;;;;4994640;28;19917;-75
2023/12/01 09:47:42;;;;;;;;;;;384.30;2329.60;;;;;;4990006;28;19917;-75
2023/12/01 09:50:13;;;;;;;;;;;384.50;2329.60;;;;;;4976339;28;19910;-75
2023/12/01 09:52:38;;;;;;;;;;;384.70;2329.60;;;;;;4994086;28;19918;-75
2023/12/01 09:55:04;;;;;;;;;;;409.80;2355.20;;;;;;4966370;28;19914;-74
2023/12/01 09:57:30;;;;;;;;;;;410.20;2355.20;;;;;;4979885;28;19910;-75
2023/12/01 09:59:55;;;;;;;;;;;435.20;2355.20;;;;;;4988925;28;20406;-74
2023/12/01 10:02:21;;;;;;;;;;;435.80;2355.20;;;;;;4993425;28;19929;-75
2023/12/01 10:04:47;;;;;;;;;;;436.00;2355.20;;;;;;4988239;28;19920;-74
2023/12/01 10:07:12;;;;;;;;;;;460.90;2380.80;;;;;;4993167;28;20012;-75
2023/12/01 10:09:38;;;;;;;;;;;461.10;2380.80;;;;;;4987142;28;19910;-76
2023/12/01 10:12:07;;;;;;;;;;;461.00;2380.80;;;;;;4993955;28;19913;-75
2023/12/01 10:14:33;;;;;;;;;;;461.00;2380.80;;;;;;4990940;28;19917;-75
2023/12/01 10:17:03;;;;;;;;;;;461.00;2380.80;;;;;;4994626;28;19910;-76
2023/12/01 10:19:33;;;;;;;;;;;460.90;2380.80;;;;;;4993643;28;19906;-75
2023/12/01 10:21:59;;;;;;;;;;;435.80;2355.20;;;;;;4964084;28;19922;-75
2023/12/01 10:24:24;;;;;;;;;;;435.50;2355.20;;;;;;4984057;28;20360;-76
2023/12/01 10:26:51;;;;;;;;;;;435.20;2355.20;;;;;;4991296;28;19920;-75
2023/12/01 10:29:30;;;;;;;;;;;435.20;2355.20;;;;;;4987725;28;19909;-76
2023/12/01 10:31:57;;;;;;;;;;;410.50;2355.20;;;;;;4984146;28;19954;-76
2023/12/01 10:34:23;;;;;;;;;;;435.20;2355.20;;;;;;4984533;28;19913;-75
2023/12/01 10:36:49;;;;;;;;;;;410.40;2355.20;;;;;;4986104;28;19913;-75
2023/12/01 10:39:20;;;;;;;;;;;410.30;2355.20;;;;;;4990042;28;19910;-75
2023/12/01 10:41:46;;;;;;;;;;;410.20;2355.20;;;;;;4992375;28;19952;-76
2023/12/01 10:44:14;;;;;;;;;;;410.20;2355.20;;;;;;4987807;28;20390;-77
2023/12/01 10:46:40;;;;;;;;;;;410.10;2355.20;;;;;;4970660;28;19920;-76
2023/12/01 10:49:06;;;;;;;;;;;410.00;2355.20;;;;;;4991074;28;19989;-77
2023/12/01 10:51:32;;;;;;;;;;;410.20;2355.20;;;;;;4986861;28;19913;-76
2023/12/01 10:53:58;;;;;;;;;;;409.90;2355.20;;;;;;4990849;28;19914;-74
2023/12/01 10:56:24;;;;;;;;;;;410.20;2355.20;;;;;;4986497;28;19917;-74
2023/12/01 10:58:52;;;;;;;;;;;410.30;2355.20;;;;;;4989928;28;20291;-75
2023/12/01 11:01:18;;;;;;;;;;;410.30;2355.20;;;;;;4987092;28;19910;-75
2023/12/01 11:03:45;;;;;;;;;;;410.40;2355.20;;;;;;4994329;28;19933;-75
2023/12/01 11:06:21;;;;;;;;;;;410.50;2355.20;;;;;;4966929;28;19906;-75
2023/12/01 11:08:59;;;;;;;;;;;410.50;2355.20;;;;;;4965103;28;19918;-75
2023/12/01 11:11:33;;;;;;;;;;;435.30;2355.20;;;;;;4992228;28;20378;-76
2023/12/01 11:14:10;;;;;;;;;;;435.40;2355.20;;;;;;4989978;28;19909;-76
2023/12/01 11:16:36;;;;;;;;;;;435.50;2355.20;;;;;;4993396;28;19910;-76
2023/12/01 11:19:02;;;;;;;;;;;435.50;2355.20;;;;;;4995301;28;19931;-76
2023/12/01 11:21:28;;;;;;;;;;;435.50;2355.20;;;;;;4990242;28;20367;-76
2023/12/01 11:23:54;;;;;;;;;;;435.50;2355.20;;;;;;4985857;28;19914;-74
2023/12/01 11:26:22;;;;;;;;;;;435.50;2355.20;;;;;;4983812;28;20017;-75
2023/12/01 11:28:56;;;;;;;;;;;435.50;2355.20;;;;;;4983303;28;19917;-75
2023/12/01 11:33:55;;;;;;;;;;;435.40;2355.20;;;;;;4989220;28;19913;-75
2023/12/01 11:36:27;;;;;;;;;;;435.50;2355.20;;;;;;4985658;28;20362;-76
2023/12/01 11:39:16;;;;;;;;;;;435.40;2355.20;;;;;;4978507;28;19977;-79
2023/12/01 11:41:42;;;;;;;;;;;435.40;2355.20;;;;;;4991423;28;19914;-76
2023/12/01 11:44:27;;;;;;;;;;;435.40;2355.20;;;;;;4985657;28;19909;-76
2023/12/01 11:46:55;;;;;;;;;;;435.50;2355.20;;;;;;4976523;28;19916;-75
2023/12/01 11:49:25;;;;;;;;;;;435.50;2355.20;;;;;;4969821;28;19906;-77
2023/12/01 11:51:50;;;;;;;;;;;435.50;2355.20;;;;;;4990959;28;19910;-78
2023/12/01 11:54:16;;;;;;;;;;;435.50;2355.20;;;;;;4992206;28;19997;-78
2023/12/01 11:57:00;;;;;;;;;;;435.50;2355.20;;;;;;4993204;28;19914;-76
2023/12/01 11:59:26;;;;;;;;;;;435.60;2355.20;;;;;;4972686;28;19942;-76
2023/12/01 12:01:56;;;;;;;;;;;435.60;2355.20;;;;;;4990560;28;19917;-78
2023/12/01 12:04:22;;;;;;;;;;;435.50;2355.20;;;;;;4984166;28;19993;-76
2023/12/01 12:06:48;;;;;;;;;;;435.60;2355.20;;;;;;4973893;28;19914;-76
2023/12/01 12:09:17;;;;;;;;;;;435.50;2355.20;;;;;;4976296;28;19960;-75
2023/12/01 12:11:52;;;;;;;;;;;435.50;2355.20;;;;;;4994859;28;19948;-78
2023/12/01 12:14:22;;;;;;;;;;;435.50;2355.20;;;;;;4992541;28;20367;-76
2023/12/01 12:16:48;;;;;;;;;;;435.50;2355.20;;;;;;4976892;28;19914;-77
2023/12/01 12:19:13;;;;;;;;;;;435.50;2355.20;;;;;;4993935;28;20253;-78
2023/12/01 12:21:39;;;;;;;;;;;435.50;2355.20;;;;;;4991633;28;19921;-76
2023/12/01 12:24:05;;;;;;;;;;;435.50;2355.20;;;;;;4989323;28;19921;-75
2023/12/01 12:26:31;;;;;;;;;;;435.50;2355.20;;;;;;4985135;28;19910;-76
2023/12/01 12:28:57;;;;;;;;;;;435.50;2355.20;;;;;;4989940;28;19956;-77
2023/12/01 12:31:25;;;;;;;;;;;435.50;2355.20;;;;;;4984842;28;19917;-75
2023/12/01 12:33:53;;;;;;;;;;;435.80;2355.20;;;;;;4992111;28;19909;-75
2023/12/01 12:36:19;;;;;;;;;;;435.50;2355.20;;;;;;4989632;28;19910;-76
2023/12/01 12:38:48;;;;;;;;;;;435.50;2355.20;;;;;;4984861;28;20292;-78
2023/12/01 12:41:23;;;;;;;;;;;435.50;2355.20;;;;;;4987584;28;19906;-77
2023/12/01 12:43:50;;;;;;;;;;;435.50;2355.20;;;;;;4989280;28;20264;-75
2023/12/01 12:46:16;;;;;;;;;;;435.60;2355.20;;;;;;4992564;28;19910;-75
2023/12/01 12:48:41;;;;;;;;;;;435.60;2355.20;;;;;;4976064;28;19944;-76
2023/12/01 12:51:07;;;;;;;;;;;435.60;2355.20;;;;;;4966410;28;19933;-77
2023/12/01 12:53:33;;;;;;;;;;;435.60;2355.20;;;;;;4993741;28;19983;-77
2023/12/01 12:56:07;;;;;;;;;;;435.60;2355.20;;;;;;4990128;28;20338;-78
2023/12/01 12:58:33;;;;;;;;;;;435.60;2355.20;;;;;;4988547;28;19917;-74
2023/12/01 13:00:59;;;;;;;;;;;435.60;2355.20;;;;;;4995735;28;19910;-76
2023/12/01 13:03:24;;;;;;;;;;;435.70;2355.20;;;;;;4979099;28;20394;-76
2023/12/01 13:05:50;;;;;;;;;;;435.60;2355.20;;;;;;4985172;28;19949;-76
2023/12/01 13:08:16;;;;;;;;;;;435.60;2355.20;;;;;;4984590;28;20345;-78
2023/12/01 13:10:41;;;;;;;;;;;435.60;2355.20;;;;;;4989362;28;19909;-77
2023/12/01 13:13:07;;;;;;;;;;;435.60;2355.20;;;;;;4989442;28;19910;-77
2023/12/01 13:15:32;;;;;;;;;;;435.60;2355.20;;;;;;4988129;28;20356;-75
2023/12/01 13:17:58;;;;;;;;;;;435.60;2355.20;;;;;;4986307;28;19944;-78
2023/12/01 13:20:23;;;;;;;;;;;435.60;2355.20;;;;;;4997056;28;20423;-76
2023/12/01 13:22:49;;;;;;;;;;;435.60;2355.20;;;;;;4991884;28;19922;-77
2023/12/01 13:25:16;;;;;;;;;;;435.60;2355.20;;;;;;4965274;28;20371;-75
2023/12/01 13:27:41;;;;;;;;;;;435.60;2355.20;;;;;;4985855;28;20050;-77
2023/12/01 13:30:08;;;;;;;;;;;435.70;2355.20;;;;;;4987729;28;19997;-76
2023/12/01 13:32:33;;;;;;;;;;;435.70;2355.20;;;;;;4963268;28;19913;-76
2023/12/01 13:34:59;;;;;;;;;;;435.60;2355.20;;;;;;4979341;28;19910;-76
2023/12/01 13:37:25;;;;;;;;;;;435.60;2355.20;;;;;;4969278;28;20319;-75
2023/12/01 13:39:50;;;;;;;;;;;435.60;2355.20;;;;;;4978407;28;19960;-80
2023/12/01 13:42:16;;;;;;;;;;;435.60;2355.20;;;;;;4991786;28;19917;-78